sensor_id;sensor_type;location;lat;lon;timestamp;P1;durP1;ratioP1;P2;durP2;ratioP2
9934;SDS011;5006;41.828;23.478;2023-01-29T00:00:21;5.70;;;5.10;;
9934;SDS011;5006;41.828;23.478;2023-01-29T00:01:26;3.63;;;3.33;;
9934;SDS011;5006;41.828;23.478;2023-01-29T00:02:33;4.40;;;4.00;;
9934;SDS011;5006;41.828;23.478;2023-01-29T00:03:39;4.55;;;4.10;;
9934;SDS011;5006;41.828;23.478;2023-01-29T00:04:44;4.43;;;3.95;;
9934;SDS011;5006;41.828;23.478;2023-01-29T00:05:49;6.20;;;5.20;;
9934;SDS011;5006;41.828;23.478;2023-01-29T00:06:54;13.85;;;8.77;;
9934;SDS011;5006;41.828;23.478;2023-01-29T00:08:00;11.68;;;7.35;;
9934;SDS011;5006;41.828;23.478;2023-01-29T00:09:06;5.97;;;4.68;;
9934;SDS011;5006;41.828;23.478;2023-01-29T00:10:11;4.65;;;3.78;;
9934;SDS011;5006;41.828;23.478;2023-01-29T00:11:16;4.78;;;4.35;;
9934;SDS011;5006;41.828;23.478;2023-01-29T00:12:24;5.75;;;5.07;;
9934;SDS011;5006;41.828;23.478;2023-01-29T00:13:29;8.00;;;5.93;;
9934;SDS011;5006;41.828;23.478;2023-01-29T00:14:36;5.45;;;4.43;;
9934;SDS011;5006;41.828;23.478;2023-01-29T00:15:41;4.35;;;3.95;;
9934;SDS011;5006;41.828;23.478;2023-01-29T00:16:46;5.80;;;5.20;;
9934;SDS011;5006;41.828;23.478;2023-01-29T00:17:51;5.00;;;4.10;;
9934;SDS011;5006;41.828;23.478;2023-01-29T00:18:57;4.32;;;3.92;;
9934;SDS011;5006;41.828;23.478;2023-01-29T00:20:02;4.40;;;4.00;;
9934;SDS011;5006;41.828;23.478;2023-01-29T00:21:09;4.78;;;4.28;;
9934;SDS011;5006;41.828;23.478;2023-01-29T00:22:14;4.95;;;4.05;;
9934;SDS011;5006;41.828;23.478;2023-01-29T00:23:20;4.22;;;3.83;;
9934;SDS011;5006;41.828;23.478;2023-01-29T00:24:26;4.43;;;3.92;;
9934;SDS011;5006;41.828;23.478;2023-01-29T00:25:31;4.68;;;4.00;;
9934;SDS011;5006;41.828;23.478;2023-01-29T00:26:36;5.20;;;4.30;;
9934;SDS011;5006;41.828;23.478;2023-01-29T00:27:43;6.03;;;4.57;;
9934;SDS011;5006;41.828;23.478;2023-01-29T00:28:48;4.93;;;4.30;;
9934;SDS011;5006;41.828;23.478;2023-01-29T00:29:53;5.68;;;4.50;;
9934;SDS011;5006;41.828;23.478;2023-01-29T00:31:12;4.55;;;3.92;;
9934;SDS011;5006;41.828;23.478;2023-01-29T00:32:20;4.13;;;3.72;;
9934;SDS011;5006;41.828;23.478;2023-01-29T00:33:27;4.80;;;4.10;;
9934;SDS011;5006;41.828;23.478;2023-01-29T00:34:33;4.97;;;4.38;;
9934;SDS011;5006;41.828;23.478;2023-01-29T00:35:38;5.05;;;4.55;;
9934;SDS011;5006;41.828;23.478;2023-01-29T00:36:45;5.13;;;4.60;;
9934;SDS011;5006;41.828;23.478;2023-01-29T00:37:50;5.97;;;4.90;;
9934;SDS011;5006;41.828;23.478;2023-01-29T00:38:56;5.40;;;4.80;;
9934;SDS011;5006;41.828;23.478;2023-01-29T00:40:02;5.38;;;4.60;;
9934;SDS011;5006;41.828;23.478;2023-01-29T00:41:08;5.70;;;4.80;;
9934;SDS011;5006;41.828;23.478;2023-01-29T00:42:32;5.75;;;4.60;;
9934;SDS011;5006;41.828;23.478;2023-01-29T00:43:57;4.70;;;4.28;;
9934;SDS011;5006;41.828;23.478;2023-01-29T00:45:20;5.43;;;4.93;;
9934;SDS011;5006;41.828;23.478;2023-01-29T00:46:27;5.68;;;4.70;;
9934;SDS011;5006;41.828;23.478;2023-01-29T00:47:31;5.53;;;4.93;;
9934;SDS011;5006;41.828;23.478;2023-01-29T00:48:37;5.50;;;4.70;;
9934;SDS011;5006;41.828;23.478;2023-01-29T00:49:41;5.30;;;4.53;;
9934;SDS011;5006;41.828;23.478;2023-01-29T00:50:47;5.07;;;4.15;;
9934;SDS011;5006;41.828;23.478;2023-01-29T00:51:51;4.88;;;4.38;;
9934;SDS011;5006;41.828;23.478;2023-01-29T00:53:14;5.47;;;4.38;;
9934;SDS011;5006;41.828;23.478;2023-01-29T00:54:20;4.57;;;4.13;;
9934;SDS011;5006;41.828;23.478;2023-01-29T00:55:25;4.60;;;4.13;;
9934;SDS011;5006;41.828;23.478;2023-01-29T00:56:31;5.18;;;4.38;;
9934;SDS011;5006;41.828;23.478;2023-01-29T00:57:37;5.28;;;4.15;;
9934;SDS011;5006;41.828;23.478;2023-01-29T00:58:43;4.88;;;4.38;;
9934;SDS011;5006;41.828;23.478;2023-01-29T00:59:49;5.25;;;4.13;;
9934;SDS011;5006;41.828;23.478;2023-01-29T01:00:55;4.63;;;4.00;;
9934;SDS011;5006;41.828;23.478;2023-01-29T01:02:00;4.47;;;4.05;;
9934;SDS011;5006;41.828;23.478;2023-01-29T01:03:23;4.70;;;4.13;;
9934;SDS011;5006;41.828;23.478;2023-01-29T01:04:28;4.80;;;4.28;;
9934;SDS011;5006;41.828;23.478;2023-01-29T01:05:33;4.80;;;4.28;;
9934;SDS011;5006;41.828;23.478;2023-01-29T01:06:41;5.40;;;4.70;;
9934;SDS011;5006;41.828;23.478;2023-01-29T01:07:46;5.00;;;4.60;;
9934;SDS011;5006;41.828;23.478;2023-01-29T01:08:53;4.53;;;4.13;;
9934;SDS011;5006;41.828;23.478;2023-01-29T01:10:17;4.80;;;4.30;;
9934;SDS011;5006;41.828;23.478;2023-01-29T01:11:27;4.65;;;4.13;;
9934;SDS011;5006;41.828;23.478;2023-01-29T01:12:32;4.97;;;4.30;;
9934;SDS011;5006;41.828;23.478;2023-01-29T01:13:38;5.50;;;4.75;;
9934;SDS011;5006;41.828;23.478;2023-01-29T01:14:44;4.93;;;4.43;;
9934;SDS011;5006;41.828;23.478;2023-01-29T01:15:52;4.95;;;4.30;;
9934;SDS011;5006;41.828;23.478;2023-01-29T01:16:58;5.18;;;4.68;;
9934;SDS011;5006;41.828;23.478;2023-01-29T01:18:02;4.20;;;3.80;;
9934;SDS011;5006;41.828;23.478;2023-01-29T01:19:08;4.57;;;3.90;;
9934;SDS011;5006;41.828;23.478;2023-01-29T01:20:14;5.28;;;4.78;;
9934;SDS011;5006;41.828;23.478;2023-01-29T01:21:20;4.97;;;4.47;;
9934;SDS011;5006;41.828;23.478;2023-01-29T01:22:25;4.35;;;3.95;;
9934;SDS011;5006;41.828;23.478;2023-01-29T01:23:31;5.07;;;4.50;;
9934;SDS011;5006;41.828;23.478;2023-01-29T01:24:36;6.35;;;5.30;;
9934;SDS011;5006;41.828;23.478;2023-01-29T01:25:42;6.30;;;4.70;;
9934;SDS011;5006;41.828;23.478;2023-01-29T01:26:47;4.50;;;3.85;;
9934;SDS011;5006;41.828;23.478;2023-01-29T01:27:53;4.75;;;4.13;;
9934;SDS011;5006;41.828;23.478;2023-01-29T01:28:58;5.13;;;4.47;;
9934;SDS011;5006;41.828;23.478;2023-01-29T01:30:05;4.60;;;4.15;;
9934;SDS011;5006;41.828;23.478;2023-01-29T01:31:14;4.43;;;3.65;;
9934;SDS011;5006;41.828;23.478;2023-01-29T01:32:20;4.00;;;3.60;;
9934;SDS011;5006;41.828;23.478;2023-01-29T01:33:24;4.20;;;3.80;;
9934;SDS011;5006;41.828;23.478;2023-01-29T01:34:30;4.03;;;3.60;;
9934;SDS011;5006;41.828;23.478;2023-01-29T01:35:36;4.50;;;4.10;;
9934;SDS011;5006;41.828;23.478;2023-01-29T01:36:43;5.68;;;5.15;;
9934;SDS011;5006;41.828;23.478;2023-01-29T01:37:48;5.15;;;4.65;;
9934;SDS011;5006;41.828;23.478;2023-01-29T01:38:54;4.18;;;3.70;;
9934;SDS011;5006;41.828;23.478;2023-01-29T01:39:59;4.13;;;3.72;;
9934;SDS011;5006;41.828;23.478;2023-01-29T01:41:06;4.90;;;4.10;;
9934;SDS011;5006;41.828;23.478;2023-01-29T01:42:12;4.43;;;4.00;;
9934;SDS011;5006;41.828;23.478;2023-01-29T01:43:17;4.13;;;3.60;;
9934;SDS011;5006;41.828;23.478;2023-01-29T01:45:57;5.80;;;5.28;;
9934;SDS011;5006;41.828;23.478;2023-01-29T01:47:05;5.13;;;4.20;;
9934;SDS011;5006;41.828;23.478;2023-01-29T01:48:10;3.83;;;3.33;;
9934;SDS011;5006;41.828;23.478;2023-01-29T01:49:20;4.65;;;4.18;;
9934;SDS011;5006;41.828;23.478;2023-01-29T01:50:26;4.75;;;4.25;;
9934;SDS011;5006;41.828;23.478;2023-01-29T01:51:36;5.93;;;5.32;;
9934;SDS011;5006;41.828;23.478;2023-01-29T01:52:45;5.82;;;5.22;;
9934;SDS011;5006;41.828;23.478;2023-01-29T01:53:56;7.85;;;7.05;;
9934;SDS011;5006;41.828;23.478;2023-01-29T01:55:06;6.50;;;5.90;;
9934;SDS011;5006;41.828;23.478;2023-01-29T01:56:17;4.60;;;4.05;;
9934;SDS011;5006;41.828;23.478;2023-01-29T01:57:26;4.22;;;3.83;;
9934;SDS011;5006;41.828;23.478;2023-01-29T01:58:34;4.97;;;4.47;;
9934;SDS011;5006;41.828;23.478;2023-01-29T01:59:44;5.43;;;4.35;;
9934;SDS011;5006;41.828;23.478;2023-01-29T02:00:53;5.32;;;4.82;;
9934;SDS011;5006;41.828;23.478;2023-01-29T02:01:59;7.10;;;6.28;;
9934;SDS011;5006;41.828;23.478;2023-01-29T02:03:23;5.15;;;4.50;;
9934;SDS011;5006;41.828;23.478;2023-01-29T02:04:49;4.95;;;4.32;;
9934;SDS011;5006;41.828;23.478;2023-01-29T02:06:13;6.63;;;5.93;;
9934;SDS011;5006;41.828;23.478;2023-01-29T02:07:38;6.05;;;5.43;;
9934;SDS011;5006;41.828;23.478;2023-01-29T02:09:04;7.97;;;7.18;;
9934;SDS011;5006;41.828;23.478;2023-01-29T02:10:34;5.18;;;4.68;;
9934;SDS011;5006;41.828;23.478;2023-01-29T02:11:43;5.20;;;4.68;;
9934;SDS011;5006;41.828;23.478;2023-01-29T02:12:49;4.72;;;4.00;;
9934;SDS011;5006;41.828;23.478;2023-01-29T02:13:54;5.60;;;5.10;;
9934;SDS011;5006;41.828;23.478;2023-01-29T02:15:03;4.72;;;3.92;;
9934;SDS011;5006;41.828;23.478;2023-01-29T02:16:09;4.82;;;4.00;;
9934;SDS011;5006;41.828;23.478;2023-01-29T02:17:15;5.80;;;4.60;;
9934;SDS011;5006;41.828;23.478;2023-01-29T02:18:21;6.97;;;6.10;;
9934;SDS011;5006;41.828;23.478;2023-01-29T02:19:34;5.90;;;5.30;;
9934;SDS011;5006;41.828;23.478;2023-01-29T02:20:47;5.43;;;4.00;;
9934;SDS011;5006;41.828;23.478;2023-01-29T02:22:05;6.40;;;4.80;;
9934;SDS011;5006;41.828;23.478;2023-01-29T02:27:08;5.70;;;5.00;;
9934;SDS011;5006;41.828;23.478;2023-01-29T02:29:53;5.38;;;4.50;;
9934;SDS011;5006;41.828;23.478;2023-01-29T02:31:05;5.15;;;4.40;;
9934;SDS011;5006;41.828;23.478;2023-01-29T02:32:19;5.57;;;4.20;;
9934;SDS011;5006;41.828;23.478;2023-01-29T02:33:34;5.45;;;4.90;;
9934;SDS011;5006;41.828;23.478;2023-01-29T02:34:49;4.68;;;3.78;;
9934;SDS011;5006;41.828;23.478;2023-01-29T02:36:26;4.68;;;3.65;;
9934;SDS011;5006;41.828;23.478;2023-01-29T02:37:40;4.43;;;3.92;;
9934;SDS011;5006;41.828;23.478;2023-01-29T02:38:55;6.80;;;4.40;;
9934;SDS011;5006;41.828;23.478;2023-01-29T02:40:07;4.30;;;3.90;;
9934;SDS011;5006;41.828;23.478;2023-01-29T02:41:20;4.35;;;3.90;;
9934;SDS011;5006;41.828;23.478;2023-01-29T02:42:33;5.57;;;3.50;;
9934;SDS011;5006;41.828;23.478;2023-01-29T02:43:46;4.05;;;3.65;;
9934;SDS011;5006;41.828;23.478;2023-01-29T02:44:57;4.78;;;3.90;;
9934;SDS011;5006;41.828;23.478;2023-01-29T02:46:10;4.68;;;4.00;;
9934;SDS011;5006;41.828;23.478;2023-01-29T02:47:24;5.35;;;4.30;;
9934;SDS011;5006;41.828;23.478;2023-01-29T02:48:38;4.47;;;4.07;;
9934;SDS011;5006;41.828;23.478;2023-01-29T02:49:51;5.32;;;4.72;;
9934;SDS011;5006;41.828;23.478;2023-01-29T02:51:03;5.47;;;4.55;;
9934;SDS011;5006;41.828;23.478;2023-01-29T02:52:13;7.20;;;5.50;;
9934;SDS011;5006;41.828;23.478;2023-01-29T02:53:24;5.65;;;4.90;;
9934;SDS011;5006;41.828;23.478;2023-01-29T02:54:36;7.68;;;6.00;;
9934;SDS011;5006;41.828;23.478;2023-01-29T02:55:47;7.38;;;6.07;;
9934;SDS011;5006;41.828;23.478;2023-01-29T02:56:58;7.00;;;5.25;;
9934;SDS011;5006;41.828;23.478;2023-01-29T02:58:08;6.82;;;5.82;;
9934;SDS011;5006;41.828;23.478;2023-01-29T02:59:19;7.82;;;6.85;;
9934;SDS011;5006;41.828;23.478;2023-01-29T03:00:27;6.38;;;5.78;;
9934;SDS011;5006;41.828;23.478;2023-01-29T03:01:39;5.65;;;5.07;;
9934;SDS011;5006;41.828;23.478;2023-01-29T03:02:51;6.10;;;4.95;;
9934;SDS011;5006;41.828;23.478;2023-01-29T03:04:01;6.10;;;5.50;;
9934;SDS011;5006;41.828;23.478;2023-01-29T03:05:11;6.22;;;5.30;;
9934;SDS011;5006;41.828;23.478;2023-01-29T03:06:23;6.63;;;5.53;;
9934;SDS011;5006;41.828;23.478;2023-01-29T03:07:32;6.25;;;5.15;;
9934;SDS011;5006;41.828;23.478;2023-01-29T03:09:06;5.63;;;5.03;;
9934;SDS011;5006;41.828;23.478;2023-01-29T03:10:18;6.43;;;5.47;;
9934;SDS011;5006;41.828;23.478;2023-01-29T03:11:28;22.23;;;13.63;;
9934;SDS011;5006;41.828;23.478;2023-01-29T03:12:40;20.60;;;12.93;;
9934;SDS011;5006;41.828;23.478;2023-01-29T03:13:49;20.08;;;12.80;;
9934;SDS011;5006;41.828;23.478;2023-01-29T03:15:00;8.27;;;6.30;;
9934;SDS011;5006;41.828;23.478;2023-01-29T03:16:17;13.95;;;10.50;;
9934;SDS011;5006;41.828;23.478;2023-01-29T03:17:28;24.33;;;14.85;;
9934;SDS011;5006;41.828;23.478;2023-01-29T03:18:43;10.85;;;7.47;;
9934;SDS011;5006;41.828;23.478;2023-01-29T03:19:54;5.78;;;5.18;;
9934;SDS011;5006;41.828;23.478;2023-01-29T03:21:02;6.40;;;5.10;;
9934;SDS011;5006;41.828;23.478;2023-01-29T03:22:32;7.20;;;5.40;;
9934;SDS011;5006;41.828;23.478;2023-01-29T03:23:41;4.95;;;4.45;;
9934;SDS011;5006;41.828;23.478;2023-01-29T03:25:04;5.35;;;4.63;;
9934;SDS011;5006;41.828;23.478;2023-01-29T03:26:31;6.18;;;5.57;;
9934;SDS011;5006;41.828;23.478;2023-01-29T03:27:55;6.07;;;5.20;;
9934;SDS011;5006;41.828;23.478;2023-01-29T03:29:23;5.75;;;5.13;;
9934;SDS011;5006;41.828;23.478;2023-01-29T03:30:49;6.35;;;5.20;;
9934;SDS011;5006;41.828;23.478;2023-01-29T03:32:26;5.75;;;5.15;;
9934;SDS011;5006;41.828;23.478;2023-01-29T03:33:38;6.30;;;5.60;;
9934;SDS011;5006;41.828;23.478;2023-01-29T03:34:48;7.75;;;5.88;;
9934;SDS011;5006;41.828;23.478;2023-01-29T03:35:58;7.10;;;6.40;;
9934;SDS011;5006;41.828;23.478;2023-01-29T03:37:12;6.47;;;5.57;;
9934;SDS011;5006;41.828;23.478;2023-01-29T03:38:22;6.05;;;5.38;;
9934;SDS011;5006;41.828;23.478;2023-01-29T03:39:35;7.38;;;5.80;;
9934;SDS011;5006;41.828;23.478;2023-01-29T03:40:43;8.27;;;6.53;;
9934;SDS011;5006;41.828;23.478;2023-01-29T03:41:56;7.15;;;6.25;;
9934;SDS011;5006;41.828;23.478;2023-01-29T03:43:08;8.20;;;6.47;;
9934;SDS011;5006;41.828;23.478;2023-01-29T03:44:18;8.63;;;6.95;;
9934;SDS011;5006;41.828;23.478;2023-01-29T03:45:31;9.73;;;7.10;;
9934;SDS011;5006;41.828;23.478;2023-01-29T03:46:49;15.40;;;8.45;;
9934;SDS011;5006;41.828;23.478;2023-01-29T03:48:02;20.20;;;11.77;;
9934;SDS011;5006;41.828;23.478;2023-01-29T03:49:14;14.80;;;9.73;;
9934;SDS011;5006;41.828;23.478;2023-01-29T03:50:30;23.35;;;13.68;;
9934;SDS011;5006;41.828;23.478;2023-01-29T03:51:44;12.07;;;8.20;;
9934;SDS011;5006;41.828;23.478;2023-01-29T03:53:00;11.45;;;8.52;;
9934;SDS011;5006;41.828;23.478;2023-01-29T03:54:13;22.52;;;12.85;;
9934;SDS011;5006;41.828;23.478;2023-01-29T03:55:26;32.58;;;17.05;;
9934;SDS011;5006;41.828;23.478;2023-01-29T03:56:42;12.88;;;8.85;;
9934;SDS011;5006;41.828;23.478;2023-01-29T03:57:54;11.43;;;8.20;;
9934;SDS011;5006;41.828;23.478;2023-01-29T03:59:06;19.20;;;11.27;;
9934;SDS011;5006;41.828;23.478;2023-01-29T04:00:40;13.50;;;9.43;;
9934;SDS011;5006;41.828;23.478;2023-01-29T04:01:56;10.65;;;8.25;;
9934;SDS011;5006;41.828;23.478;2023-01-29T04:03:04;9.80;;;8.23;;
9934;SDS011;5006;41.828;23.478;2023-01-29T04:04:19;10.80;;;7.57;;
9934;SDS011;5006;41.828;23.478;2023-01-29T04:05:29;15.85;;;9.52;;
9934;SDS011;5006;41.828;23.478;2023-01-29T04:06:47;11.52;;;8.80;;
9934;SDS011;5006;41.828;23.478;2023-01-29T04:07:55;11.65;;;7.55;;
9934;SDS011;5006;41.828;23.478;2023-01-29T04:09:08;9.55;;;7.90;;
9934;SDS011;5006;41.828;23.478;2023-01-29T04:10:18;10.32;;;8.25;;
9934;SDS011;5006;41.828;23.478;2023-01-29T04:11:28;8.93;;;7.65;;
9934;SDS011;5006;41.828;23.478;2023-01-29T04:12:37;9.98;;;7.97;;
9934;SDS011;5006;41.828;23.478;2023-01-29T04:13:49;9.82;;;7.72;;
9934;SDS011;5006;41.828;23.478;2023-01-29T04:14:56;12.50;;;8.88;;
9934;SDS011;5006;41.828;23.478;2023-01-29T04:16:06;11.38;;;8.07;;
9934;SDS011;5006;41.828;23.478;2023-01-29T04:17:33;9.82;;;7.65;;
9934;SDS011;5006;41.828;23.478;2023-01-29T04:18:49;10.40;;;7.68;;
9934;SDS011;5006;41.828;23.478;2023-01-29T04:20:02;10.10;;;7.90;;
9934;SDS011;5006;41.828;23.478;2023-01-29T04:21:09;9.40;;;7.78;;
9934;SDS011;5006;41.828;23.478;2023-01-29T04:22:16;9.50;;;7.68;;
9934;SDS011;5006;41.828;23.478;2023-01-29T04:23:28;10.63;;;8.13;;
9934;SDS011;5006;41.828;23.478;2023-01-29T04:24:33;11.15;;;8.02;;
9934;SDS011;5006;41.828;23.478;2023-01-29T04:25:45;9.27;;;7.30;;
9934;SDS011;5006;41.828;23.478;2023-01-29T04:27:02;8.20;;;7.00;;
9934;SDS011;5006;41.828;23.478;2023-01-29T04:28:22;11.63;;;7.88;;
9934;SDS011;5006;41.828;23.478;2023-01-29T04:29:38;9.65;;;7.20;;
9934;SDS011;5006;41.828;23.478;2023-01-29T04:30:52;8.70;;;7.47;;
9934;SDS011;5006;41.828;23.478;2023-01-29T04:32:04;8.07;;;7.10;;
9934;SDS011;5006;41.828;23.478;2023-01-29T04:33:20;9.52;;;7.97;;
9934;SDS011;5006;41.828;23.478;2023-01-29T04:34:35;9.10;;;7.72;;
9934;SDS011;5006;41.828;23.478;2023-01-29T04:36:04;12.95;;;9.05;;
9934;SDS011;5006;41.828;23.478;2023-01-29T04:37:22;11.73;;;8.32;;
9934;SDS011;5006;41.828;23.478;2023-01-29T04:38:41;10.32;;;8.38;;
9934;SDS011;5006;41.828;23.478;2023-01-29T04:39:55;9.77;;;8.27;;
9934;SDS011;5006;41.828;23.478;2023-01-29T04:41:09;9.85;;;7.63;;
9934;SDS011;5006;41.828;23.478;2023-01-29T04:42:22;9.57;;;7.80;;
9934;SDS011;5006;41.828;23.478;2023-01-29T04:43:37;9.75;;;8.43;;
9934;SDS011;5006;41.828;23.478;2023-01-29T04:44:49;10.88;;;8.27;;
9934;SDS011;5006;41.828;23.478;2023-01-29T04:46:07;9.88;;;8.18;;
9934;SDS011;5006;41.828;23.478;2023-01-29T04:47:18;9.80;;;8.00;;
9934;SDS011;5006;41.828;23.478;2023-01-29T04:48:28;10.43;;;7.15;;
9934;SDS011;5006;41.828;23.478;2023-01-29T04:49:39;10.50;;;8.00;;
9934;SDS011;5006;41.828;23.478;2023-01-29T04:50:52;9.25;;;7.47;;
9934;SDS011;5006;41.828;23.478;2023-01-29T04:52:04;9.23;;;7.78;;
9934;SDS011;5006;41.828;23.478;2023-01-29T04:53:15;8.85;;;7.50;;
9934;SDS011;5006;41.828;23.478;2023-01-29T04:54:28;9.35;;;7.45;;
9934;SDS011;5006;41.828;23.478;2023-01-29T04:55:42;9.20;;;6.85;;
9934;SDS011;5006;41.828;23.478;2023-01-29T04:56:53;9.60;;;7.72;;
9934;SDS011;5006;41.828;23.478;2023-01-29T04:58:07;8.65;;;7.30;;
9934;SDS011;5006;41.828;23.478;2023-01-29T04:59:18;8.95;;;7.57;;
9934;SDS011;5006;41.828;23.478;2023-01-29T05:00:33;10.55;;;7.75;;
9934;SDS011;5006;41.828;23.478;2023-01-29T05:01:43;11.20;;;7.72;;
9934;SDS011;5006;41.828;23.478;2023-01-29T05:02:48;9.02;;;7.13;;
9934;SDS011;5006;41.828;23.478;2023-01-29T05:03:56;10.30;;;7.93;;
9934;SDS011;5006;41.828;23.478;2023-01-29T05:05:04;9.63;;;7.63;;
9934;SDS011;5006;41.828;23.478;2023-01-29T05:06:11;9.68;;;7.72;;
9934;SDS011;5006;41.828;23.478;2023-01-29T05:07:17;8.32;;;7.03;;
9934;SDS011;5006;41.828;23.478;2023-01-29T05:08:25;11.32;;;8.50;;
9934;SDS011;5006;41.828;23.478;2023-01-29T05:09:32;16.60;;;11.68;;
9934;SDS011;5006;41.828;23.478;2023-01-29T05:10:38;24.90;;;14.60;;
9934;SDS011;5006;41.828;23.478;2023-01-29T05:11:44;14.40;;;10.88;;
9934;SDS011;5006;41.828;23.478;2023-01-29T05:12:53;15.02;;;11.77;;
9934;SDS011;5006;41.828;23.478;2023-01-29T05:14:03;16.63;;;11.48;;
9934;SDS011;5006;41.828;23.478;2023-01-29T05:15:14;8.50;;;6.72;;
9934;SDS011;5006;41.828;23.478;2023-01-29T05:16:22;10.88;;;8.50;;
9934;SDS011;5006;41.828;23.478;2023-01-29T05:17:32;11.43;;;8.73;;
9934;SDS011;5006;41.828;23.478;2023-01-29T05:18:37;10.50;;;8.32;;
9934;SDS011;5006;41.828;23.478;2023-01-29T05:19:45;9.77;;;7.30;;
9934;SDS011;5006;41.828;23.478;2023-01-29T05:20:50;7.47;;;6.32;;
9934;SDS011;5006;41.828;23.478;2023-01-29T05:21:57;7.38;;;6.10;;
9934;SDS011;5006;41.828;23.478;2023-01-29T05:23:02;7.65;;;5.80;;
9934;SDS011;5006;41.828;23.478;2023-01-29T05:24:09;7.30;;;5.95;;
9934;SDS011;5006;41.828;23.478;2023-01-29T05:25:20;8.20;;;6.50;;
9934;SDS011;5006;41.828;23.478;2023-01-29T05:26:27;6.72;;;5.45;;
9934;SDS011;5006;41.828;23.478;2023-01-29T05:27:51;6.95;;;5.57;;
9934;SDS011;5006;41.828;23.478;2023-01-29T05:29:08;6.53;;;5.18;;
9934;SDS011;5006;41.828;23.478;2023-01-29T05:30:15;6.38;;;4.88;;
9934;SDS011;5006;41.828;23.478;2023-01-29T05:31:21;5.65;;;5.05;;
9934;SDS011;5006;41.828;23.478;2023-01-29T05:32:27;7.68;;;5.93;;
9934;SDS011;5006;41.828;23.478;2023-01-29T05:33:33;5.70;;;4.80;;
9934;SDS011;5006;41.828;23.478;2023-01-29T05:34:39;6.30;;;5.20;;
9934;SDS011;5006;41.828;23.478;2023-01-29T05:35:45;5.85;;;5.20;;
9934;SDS011;5006;41.828;23.478;2023-01-29T05:36:51;7.20;;;5.47;;
9934;SDS011;5006;41.828;23.478;2023-01-29T05:37:56;10.63;;;6.97;;
9934;SDS011;5006;41.828;23.478;2023-01-29T05:39:02;9.85;;;6.45;;
9934;SDS011;5006;41.828;23.478;2023-01-29T05:40:08;6.82;;;5.32;;
9934;SDS011;5006;41.828;23.478;2023-01-29T05:41:14;7.07;;;5.47;;
9934;SDS011;5006;41.828;23.478;2023-01-29T05:42:20;8.68;;;6.68;;
9934;SDS011;5006;41.828;23.478;2023-01-29T05:43:25;7.13;;;6.28;;
9934;SDS011;5006;41.828;23.478;2023-01-29T05:44:30;7.75;;;6.38;;
9934;SDS011;5006;41.828;23.478;2023-01-29T05:45:36;8.23;;;6.05;;
9934;SDS011;5006;41.828;23.478;2023-01-29T05:46:40;6.00;;;5.40;;
9934;SDS011;5006;41.828;23.478;2023-01-29T05:47:46;6.43;;;4.82;;
9934;SDS011;5006;41.828;23.478;2023-01-29T05:48:51;5.97;;;4.65;;
9934;SDS011;5006;41.828;23.478;2023-01-29T05:49:57;5.97;;;4.95;;
9934;SDS011;5006;41.828;23.478;2023-01-29T05:51:04;5.43;;;4.93;;
9934;SDS011;5006;41.828;23.478;2023-01-29T05:52:09;6.22;;;5.20;;
9934;SDS011;5006;41.828;23.478;2023-01-29T05:53:15;4.95;;;4.40;;
9934;SDS011;5006;41.828;23.478;2023-01-29T05:54:21;6.15;;;5.00;;
9934;SDS011;5006;41.828;23.478;2023-01-29T05:55:26;6.53;;;5.00;;
9934;SDS011;5006;41.828;23.478;2023-01-29T05:56:32;6.00;;;4.90;;
9934;SDS011;5006;41.828;23.478;2023-01-29T05:57:39;6.47;;;4.95;;
9934;SDS011;5006;41.828;23.478;2023-01-29T05:58:44;6.07;;;4.80;;
9934;SDS011;5006;41.828;23.478;2023-01-29T05:59:49;5.35;;;4.47;;
9934;SDS011;5006;41.828;23.478;2023-01-29T06:00:54;5.57;;;4.80;;
9934;SDS011;5006;41.828;23.478;2023-01-29T06:02:00;5.82;;;4.90;;
9934;SDS011;5006;41.828;23.478;2023-01-29T06:03:05;4.80;;;4.30;;
9934;SDS011;5006;41.828;23.478;2023-01-29T06:04:11;5.57;;;4.85;;
9934;SDS011;5006;41.828;23.478;2023-01-29T06:05:15;6.07;;;5.38;;
9934;SDS011;5006;41.828;23.478;2023-01-29T06:06:22;4.80;;;4.30;;
9934;SDS011;5006;41.828;23.478;2023-01-29T06:07:28;6.25;;;4.70;;
9934;SDS011;5006;41.828;23.478;2023-01-29T06:08:32;6.07;;;4.65;;
9934;SDS011;5006;41.828;23.478;2023-01-29T06:09:38;5.80;;;4.93;;
9934;SDS011;5006;41.828;23.478;2023-01-29T06:10:43;5.65;;;4.63;;
9934;SDS011;5006;41.828;23.478;2023-01-29T06:11:48;5.63;;;4.60;;
9934;SDS011;5006;41.828;23.478;2023-01-29T06:12:53;5.25;;;4.60;;
9934;SDS011;5006;41.828;23.478;2023-01-29T06:14:18;5.65;;;4.80;;
9934;SDS011;5006;41.828;23.478;2023-01-29T06:15:22;5.43;;;4.43;;
9934;SDS011;5006;41.828;23.478;2023-01-29T06:16:29;5.03;;;4.22;;
9934;SDS011;5006;41.828;23.478;2023-01-29T06:17:34;5.97;;;4.93;;
9934;SDS011;5006;41.828;23.478;2023-01-29T06:18:40;5.68;;;4.65;;
9934;SDS011;5006;41.828;23.478;2023-01-29T06:19:45;5.28;;;4.35;;
9934;SDS011;5006;41.828;23.478;2023-01-29T06:20:51;5.85;;;4.82;;
9934;SDS011;5006;41.828;23.478;2023-01-29T06:21:57;4.75;;;4.20;;
9934;SDS011;5006;41.828;23.478;2023-01-29T06:23:03;5.30;;;4.53;;
9934;SDS011;5006;41.828;23.478;2023-01-29T06:24:08;6.18;;;5.13;;
9934;SDS011;5006;41.828;23.478;2023-01-29T06:25:14;6.78;;;5.18;;
9934;SDS011;5006;41.828;23.478;2023-01-29T06:26:19;8.00;;;6.22;;
9934;SDS011;5006;41.828;23.478;2023-01-29T06:27:25;6.53;;;5.70;;
9934;SDS011;5006;41.828;23.478;2023-01-29T06:28:30;5.53;;;4.95;;
9934;SDS011;5006;41.828;23.478;2023-01-29T06:29:36;6.75;;;5.97;;
9934;SDS011;5006;41.828;23.478;2023-01-29T06:30:41;7.10;;;4.93;;
9934;SDS011;5006;41.828;23.478;2023-01-29T06:31:46;5.90;;;5.30;;
9934;SDS011;5006;41.828;23.478;2023-01-29T06:32:54;5.55;;;4.78;;
9934;SDS011;5006;41.828;23.478;2023-01-29T06:34:01;6.57;;;5.05;;
9934;SDS011;5006;41.828;23.478;2023-01-29T06:35:07;8.48;;;6.38;;
9934;SDS011;5006;41.828;23.478;2023-01-29T06:36:13;7.28;;;5.90;;
9934;SDS011;5006;41.828;23.478;2023-01-29T06:37:20;5.68;;;4.72;;
9934;SDS011;5006;41.828;23.478;2023-01-29T06:38:26;5.35;;;4.68;;
9934;SDS011;5006;41.828;23.478;2023-01-29T06:39:31;5.43;;;4.57;;
9934;SDS011;5006;41.828;23.478;2023-01-29T06:40:37;8.50;;;6.53;;
9934;SDS011;5006;41.828;23.478;2023-01-29T06:41:43;5.97;;;5.03;;
9934;SDS011;5006;41.828;23.478;2023-01-29T06:42:48;8.07;;;6.55;;
9934;SDS011;5006;41.828;23.478;2023-01-29T06:43:54;6.45;;;5.50;;
9934;SDS011;5006;41.828;23.478;2023-01-29T06:44:59;6.05;;;4.70;;
9934;SDS011;5006;41.828;23.478;2023-01-29T06:46:05;6.45;;;5.35;;
9934;SDS011;5006;41.828;23.478;2023-01-29T06:47:12;8.20;;;6.32;;
9934;SDS011;5006;41.828;23.478;2023-01-29T06:48:17;6.47;;;5.28;;
9934;SDS011;5006;41.828;23.478;2023-01-29T06:49:23;7.03;;;5.30;;
9934;SDS011;5006;41.828;23.478;2023-01-29T06:50:28;5.57;;;4.95;;
9934;SDS011;5006;41.828;23.478;2023-01-29T06:51:33;6.15;;;5.35;;
9934;SDS011;5006;41.828;23.478;2023-01-29T06:52:40;6.53;;;5.50;;
9934;SDS011;5006;41.828;23.478;2023-01-29T06:53:45;7.15;;;5.38;;
9934;SDS011;5006;41.828;23.478;2023-01-29T06:54:50;5.70;;;4.57;;
9934;SDS011;5006;41.828;23.478;2023-01-29T06:55:55;6.10;;;5.00;;
9934;SDS011;5006;41.828;23.478;2023-01-29T06:57:01;5.75;;;4.82;;
9934;SDS011;5006;41.828;23.478;2023-01-29T06:58:08;6.50;;;4.32;;
9934;SDS011;5006;41.828;23.478;2023-01-29T06:59:14;7.35;;;5.18;;
9934;SDS011;5006;41.828;23.478;2023-01-29T07:00:22;5.03;;;4.50;;
9934;SDS011;5006;41.828;23.478;2023-01-29T07:01:27;5.53;;;4.95;;
9934;SDS011;5006;41.828;23.478;2023-01-29T07:02:32;7.45;;;5.68;;
9934;SDS011;5006;41.828;23.478;2023-01-29T07:03:37;5.15;;;4.47;;
9934;SDS011;5006;41.828;23.478;2023-01-29T07:04:44;4.80;;;4.10;;
9934;SDS011;5006;41.828;23.478;2023-01-29T07:05:49;4.85;;;3.92;;
9934;SDS011;5006;41.828;23.478;2023-01-29T07:06:57;5.93;;;4.93;;
9934;SDS011;5006;41.828;23.478;2023-01-29T07:08:05;7.72;;;5.80;;
9934;SDS011;5006;41.828;23.478;2023-01-29T07:09:10;5.65;;;4.78;;
9934;SDS011;5006;41.828;23.478;2023-01-29T07:10:16;7.10;;;5.22;;
9934;SDS011;5006;41.828;23.478;2023-01-29T07:11:21;5.70;;;5.03;;